Time;durP1;ratioP1;P1;durP2;ratioP2;P2;SDS_P1;SDS_P2;PMS_P1;PMS_P2;Temp;Humidity;BMP_temperature;BMP_pressure;BME280_temperature;BME280_humidity;BME280_pressure;Samples;Min_cycle;Max_cycle;Signal;HPM_P1;HPM_P2
2023/10/24 00:00:47;;;;;;;;;11.00;10.67;;;;;17.46;100.00;99878.84;2085364;28;46246;-58
2023/10/24 00:01:47;;;;;;;;;7.25;6.25;;;;;17.48;100.00;99879.63;2087883;27;46979;-57
2023/10/24 00:02:48;;;;;;;;;8.67;8.67;;;;;17.47;100.00;99876.06;2106487;28;46638;-58
2023/10/24 00:03:48;;;;;;;;;7.33;7.33;;;;;17.48;100.00;99877.81;2092037;28;46323;-58
2023/10/24 00:04:48;;;;;;;;;7.00;7.00;;;;;17.48;100.00;99882.31;2093886;28;46458;-57
2023/10/24 00:05:51;;;;;;;;;6.33;6.00;;;;;17.48;100.00;99883.16;2074328;28;46437;-58
2023/10/24 00:06:51;;;;;;;;;11.25;10.00;;;;;17.47;100.00;99878.75;2059321;28;46812;-58
2023/10/24 00:07:51;;;;;;;;;6.67;6.67;;;;;17.47;100.00;99880.59;2088187;28;46299;-58
2023/10/24 00:08:52;;;;;;;;;10.00;10.00;;;;;17.47;100.00;99883.25;2082536;28;46315;-57
2023/10/24 00:09:52;;;;;;;;;7.00;6.33;;;;;17.45;100.00;99879.81;2095943;28;46472;-57
2023/10/24 00:11:03;;;;;;;;;8.00;8.00;;;;;17.45;100.00;99886.03;2068254;28;46733;-59
2023/10/24 00:12:03;;;;;;;;;10.75;9.50;;;;;17.44;100.00;99870.06;2063609;28;46892;-58
2023/10/24 00:13:04;;;;;;;;;7.00;7.00;;;;;17.43;100.00;99873.69;2097027;28;46198;-57
2023/10/24 00:14:04;;;;;;;;;7.33;7.33;;;;;17.43;100.00;99871.00;2078007;28;46484;-58
2023/10/24 00:15:05;;;;;;;;;9.67;9.67;;;;;17.43;100.00;99874.56;2106216;28;46276;-58
2023/10/24 00:16:06;;;;;;;;;10.00;10.00;;;;;17.43;100.00;99869.19;2089642;28;46823;-56
2023/10/24 00:17:06;;;;;;;;;10.00;9.67;;;;;17.44;100.00;99868.22;2057987;28;45803;-56
2023/10/24 00:18:07;;;;;;;;;10.67;9.33;;;;;17.44;100.00;99860.19;2064225;28;46803;-57
2023/10/24 00:19:07;;;;;;;;;9.50;7.00;;;;;17.45;100.00;99859.22;2082291;28;46712;-58
2023/10/24 00:20:09;;;;;;;;;7.67;7.67;;;;;17.46;100.00;99855.59;2081673;28;46430;-58
2023/10/24 00:21:10;;;;;;;;;10.25;9.25;;;;;17.46;100.00;99854.72;2094436;28;46580;-58
2023/10/24 00:22:10;;;;;;;;;10.67;9.67;;;;;17.45;100.00;99853.84;2100873;28;46307;-57
2023/10/24 00:23:10;;;;;;;;;8.00;7.00;;;;;17.45;100.00;99851.19;2105924;28;46403;-58
2023/10/24 00:24:11;;;;;;;;;10.00;10.00;;;;;17.46;100.00;99854.72;2100445;28;46775;-58
2023/10/24 00:25:11;;;;;;;;;8.67;8.00;;;;;17.46;100.00;99857.41;2103619;28;46547;-59
2023/10/24 00:26:11;;;;;;;;;8.00;8.00;;;;;17.48;100.00;99863.53;2103766;28;46608;-57
2023/10/24 00:27:12;;;;;;;;;7.00;7.00;;;;;17.48;100.00;99864.38;2104267;27;46401;-59
2023/10/24 00:28:13;;;;;;;;;12.33;10.67;;;;;17.50;100.00;99864.28;2078821;28;47074;-58
2023/10/24 00:29:13;;;;;;;;;7.67;7.00;;;;;17.49;100.00;99859.88;2095795;28;46575;-57
2023/10/24 00:30:14;;;;;;;;;8.33;8.33;;;;;17.51;100.00;99868.69;2104940;28;46878;-57
2023/10/24 00:31:14;;;;;;;;;10.00;9.33;;;;;17.51;100.00;99866.00;2104022;28;46873;-59
2023/10/24 00:32:14;;;;;;;;;9.00;8.67;;;;;17.52;100.00;99865.03;2087416;28;46721;-57
2023/10/24 00:33:15;;;;;;;;;8.33;8.33;;;;;17.52;100.00;99865.03;2105213;28;45686;-57
2023/10/24 00:34:16;;;;;;;;;12.67;10.00;;;;;17.51;100.00;99861.50;2104979;28;46921;-58
2023/10/24 00:35:17;;;;;;;;;7.50;7.50;;;;;17.51;100.00;99860.63;2102519;27;46368;-57
2023/10/24 00:36:17;;;;;;;;;9.00;7.25;;;;;17.49;100.00;99862.56;2065735;28;46848;-57
2023/10/24 00:37:18;;;;;;;;;8.33;8.00;;;;;17.48;100.00;99866.22;2094896;28;46820;-58
2023/10/24 00:38:18;;;;;;;;;11.67;9.00;;;;;17.46;100.00;99866.31;2105092;28;46590;-58
2023/10/24 00:39:18;;;;;;;;;9.00;9.00;;;;;17.45;100.00;99869.09;2106171;28;46254;-58
2023/10/24 00:40:19;;;;;;;;;10.33;9.00;;;;;17.45;100.00;99866.41;2104633;28;46628;-57
2023/10/24 00:41:20;;;;;;;;;11.33;11.33;;;;;17.45;100.00;99863.72;2105380;28;46161;-56
2023/10/24 00:42:20;;;;;;;;;10.67;10.33;;;;;17.46;100.00;99866.31;2071646;27;46252;-61
2023/10/24 00:43:20;;;;;;;;;10.00;10.00;;;;;17.49;100.00;99867.94;2077975;28;46634;-58
2023/10/24 00:44:21;;;;;;;;;12.33;12.00;;;;;17.50;100.00;99869.66;2105256;28;46574;-58
2023/10/24 00:45:21;;;;;;;;;12.33;12.33;;;;;17.49;100.00;99863.41;2070574;28;46276;-56
2023/10/24 00:46:22;;;;;;;;;12.00;11.00;;;;;17.49;100.00;99859.88;2061468;28;47883;-59
2023/10/24 00:47:22;;;;;;;;;10.00;10.00;;;;;17.50;100.00;99859.78;2105788;28;46740;-55
2023/10/24 00:48:23;;;;;;;;;12.33;12.00;;;;;17.50;100.00;99862.47;2105026;27;46734;-59
2023/10/24 00:49:24;;;;;;;;;14.00;12.00;;;;;17.50;100.00;99862.47;2106172;28;46711;-57
2023/10/24 00:50:26;;;;;;;;;14.75;13.25;;;;;17.49;100.00;99862.56;2105070;28;46406;-59
2023/10/24 00:51:26;;;;;;;;;11.25;11.25;;;;;17.50;100.00;99857.09;2086246;28;46554;-58
2023/10/24 00:52:27;;;;;;;;;12.33;10.33;;;;;17.49;100.00;99862.56;2105716;27;46833;-58
2023/10/24 00:53:28;;;;;;;;;15.67;15.00;;;;;17.50;100.00;99862.47;2078634;27;46754;-55
2023/10/24 00:54:29;;;;;;;;;16.00;14.50;;;;;17.50;100.00;99865.16;2104826;28;46486;-56
2023/10/24 00:55:30;;;;;;;;;12.00;11.00;;;;;17.51;100.00;99863.31;2106581;28;46406;-56
2023/10/24 00:56:31;;;;;;;;;12.00;12.00;;;;;17.49;100.00;99866.09;2105013;28;46082;-56
2023/10/24 00:57:32;;;;;;;;;16.00;13.00;;;;;17.48;100.00;99859.03;2105939;28;46509;-56
2023/10/24 00:58:35;;;;;;;;;10.33;10.00;;;;;17.49;100.00;99854.50;2072330;28;46276;-58
2023/10/24 00:59:38;;;;;;;;;11.00;11.00;;;;;17.48;100.00;99852.78;2105817;27;46894;-57
2023/10/24 01:00:42;;;;;;;;;13.00;12.60;;;;;17.48;100.00;99856.34;2105705;28;46306;-55
2023/10/24 01:01:43;;;;;;;;;12.20;11.00;;;;;17.48;100.00;99856.34;2095153;27;46216;-58
2023/10/24 01:02:44;;;;;;;;;13.80;12.80;;;;;17.49;100.00;99857.19;2074273;28;45860;-58
2023/10/24 01:03:46;;;;;;;;;13.00;12.60;;;;;17.49;100.00;99854.50;2106493;28;46373;-58
2023/10/24 01:04:47;;;;;;;;;13.00;12.00;;;;;17.48;100.00;99855.47;2105397;28;46959;-58
2023/10/24 01:05:49;;;;;;;;;11.25;10.75;;;;;17.47;100.00;99859.13;2089703;27;46805;-59
2023/10/24 01:06:50;;;;;;;;;10.40;10.40;;;;;17.47;100.00;99856.44;2055097;28;46976;-55
2023/10/24 01:07:50;;;;;;;;;12.33;11.00;;;;;17.47;100.00;99848.41;2081189;28;46344;-58
2023/10/24 01:08:50;;;;;;;;;11.33;10.00;;;;;17.48;100.00;99845.59;2063996;28;46583;-57
2023/10/24 01:09:51;;;;;;;;;11.00;10.33;;;;;17.47;100.00;99843.88;2105069;27;46210;-59
2023/10/24 01:10:51;;;;;;;;;11.50;10.25;;;;;17.49;100.00;99841.97;2105333;28;46419;-58
2023/10/24 01:11:53;;;;;;;;;12.50;10.00;;;;;17.50;100.00;99845.50;2105820;28;46273;-59
2023/10/24 01:12:53;;;;;;;;;14.00;12.40;;;;;17.48;100.00;99842.94;2066406;28;46741;-58
2023/10/24 01:13:54;;;;;;;;;16.00;14.75;;;;;17.48;100.00;99842.94;2074453;28;46616;-58
2023/10/24 01:14:54;;;;;;;;;13.75;13.75;;;;;17.50;100.00;99845.50;2071937;28;46393;-56
2023/10/24 01:15:55;;;;;;;;;12.25;12.25;;;;;17.49;100.00;99844.66;2080205;28;46350;-58
2023/10/24 01:16:55;;;;;;;;;11.00;10.00;;;;;17.50;100.00;99843.69;2055295;28;46778;-57
2023/10/24 01:17:55;;;;;;;;;11.25;11.25;;;;;17.50;100.00;99834.78;2077147;28;47369;-57
2023/10/24 01:18:56;;;;;;;;;12.00;11.00;;;;;17.49;100.00;99841.09;2072799;28;46638;-57
2023/10/24 01:19:56;;;;;;;;;13.00;12.25;;;;;17.49;100.00;99849.16;2063096;28;46607;-57
2023/10/24 01:20:56;;;;;;;;;12.00;11.00;;;;;17.46;100.00;99847.53;2071869;28;46543;-56
2023/10/24 01:21:57;;;;;;;;;13.50;13.50;;;;;17.46;100.00;99849.34;2076347;28;46304;-59
2023/10/24 01:22:57;;;;;;;;;11.00;11.00;;;;;17.47;100.00;99848.41;2072534;28;46303;-58
2023/10/24 01:23:58;;;;;;;;;11.75;11.75;;;;;17.47;100.00;99848.41;2097590;28;46215;-57
2023/10/24 01:24:58;;;;;;;;;13.75;12.00;;;;;17.49;100.00;99854.50;2095307;28;46180;-59
2023/10/24 01:25:59;;;;;;;;;9.67;9.67;;;;;17.48;100.00;99853.66;2077076;28;46217;-57
2023/10/24 01:26:59;;;;;;;;;11.67;10.67;;;;;17.56;100.00;99847.81;2078032;28;46686;-58
2023/10/24 01:28:00;;;;;;;;;13.50;12.25;;;;;17.63;100.00;99851.81;2068023;28;46512;-58
2023/10/24 01:29:00;;;;;;;;;10.00;10.00;;;;;17.62;100.00;99848.25;2068363;28;46533;-58
2023/10/24 01:30:01;;;;;;;;;12.00;12.00;;;;;17.63;100.00;99851.81;2075811;28;46264;-57
2023/10/24 01:31:01;;;;;;;;;14.00;14.00;;;;;17.63;100.00;99854.50;2072365;28;46503;-57
2023/10/24 01:32:02;;;;;;;;;12.67;12.67;;;;;17.70;100.00;99844.28;2074285;28;46380;-58
2023/10/24 01:33:03;;;;;;;;;13.00;12.00;;;;;17.72;100.00;99853.06;2070521;28;47182;-56
2023/10/24 01:34:04;;;;;;;;;13.00;11.75;;;;;17.71;100.00;99852.22;2077495;28;46464;-58
2023/10/24 01:35:05;;;;;;;;;12.33;12.00;;;;;17.73;100.00;99855.66;2077843;28;46834;-59
2023/10/24 01:36:06;;;;;;;;;13.00;12.75;;;;;17.72;100.00;99858.44;2062705;28;46377;-58
2023/10/24 01:37:06;;;;;;;;;11.67;11.67;;;;;17.72;100.00;99859.31;2077798;28;46876;-59
2023/10/24 01:38:06;;;;;;;;;9.67;9.67;;;;;17.72;100.00;99858.44;2105917;28;46635;-58
2023/10/24 01:39:07;;;;;;;;;13.33;13.00;;;;;17.72;100.00;99853.94;2081682;28;46420;-58
2023/10/24 01:40:08;;;;;;;;;12.33;10.67;;;;;17.73;100.00;99852.97;2064471;28;46464;-56
2023/10/24 01:41:08;;;;;;;;;14.33;13.00;;;;;17.73;100.00;99861.03;2068977;28;46310;-58
2023/10/24 01:42:09;;;;;;;;;11.00;10.50;;;;;17.72;100.00;99845.03;2082918;28;46591;-60
2023/10/24 01:43:09;;;;;;;;;11.00;11.00;;;;;17.70;100.00;99853.19;2100052;28;46625;-59
2023/10/24 01:44:09;;;;;;;;;12.67;11.33;;;;;17.70;100.00;99855.00;2101491;28;46616;-57
2023/10/24 01:45:10;;;;;;;;;12.33;12.33;;;;;17.70;100.00;99847.81;2096133;28;46363;-57
2023/10/24 01:46:10;;;;;;;;;13.33;13.00;;;;;17.71;100.00;99848.66;2105379;27;46216;-57
2023/10/24 01:47:10;;;;;;;;;13.00;13.00;;;;;17.71;100.00;99843.31;2094586;28;46250;-59
2023/10/24 01:48:11;;;;;;;;;8.00;8.00;;;;;17.72;100.00;99847.72;2094693;28;46491;-58
2023/10/24 01:49:11;;;;;;;;;14.00;13.33;;;;;17.72;100.00;99832.47;2105479;28;46696;-58
2023/10/24 01:50:12;;;;;;;;;14.33;12.00;;;;;17.71;100.00;99830.75;2093154;28;46864;-57
2023/10/24 01:51:12;;;;;;;;;12.33;12.33;;;;;17.72;100.00;99837.84;2064112;28;46674;-58
2023/10/24 01:52:12;;;;;;;;;13.25;12.25;;;;;17.72;100.00;99832.47;2100851;28;46775;-57
2023/10/24 01:53:13;;;;;;;;;11.33;11.33;;;;;17.68;100.00;99830.94;2091216;28;46779;-57
2023/10/24 01:54:13;;;;;;;;;17.00;13.00;;;;;17.71;100.00;99835.25;2106406;28;45506;-58
2023/10/24 01:55:13;;;;;;;;;14.33;13.33;;;;;17.70;100.00;99829.03;2092586;28;45704;-56
2023/10/24 01:56:14;;;;;;;;;9.33;9.33;;;;;17.72;100.00;99832.47;2089089;28;46432;-57
2023/10/24 01:57:15;;;;;;;;;12.33;10.33;;;;;17.72;100.00;99834.28;2104631;28;46363;-59
2023/10/24 01:58:15;;;;;;;;;12.50;12.25;;;;;17.73;100.00;99834.19;2089993;28;46811;-57
2023/10/24 01:59:16;;;;;;;;;15.00;13.33;;;;;17.73;100.00;99833.31;2100025;28;46681;-58
2023/10/24 02:00:16;;;;;;;;;13.33;12.67;;;;;17.75;100.00;99842.13;2098923;28;46646;-59
2023/10/24 02:01:17;;;;;;;;;13.00;10.00;;;;;17.73;100.00;99826.13;2094163;28;46469;-59
2023/10/24 02:02:17;;;;;;;;;13.00;11.33;;;;;17.74;100.00;99837.72;2074098;28;46247;-57
2023/10/24 02:03:17;;;;;;;;;13.00;13.00;;;;;17.71;100.00;99835.25;2092325;28;46240;-58
2023/10/24 02:04:18;;;;;;;;;12.00;10.33;;;;;17.68;100.00;99830.94;2097438;28;46776;-57
2023/10/24 02:05:18;;;;;;;;;13.50;12.25;;;;;17.70;100.00;99829.03;2100644;28;46183;-58
2023/10/24 02:06:18;;;;;;;;;13.67;12.00;;;;;17.69;100.00;99827.31;2082441;28;46622;-56
2023/10/24 02:07:23;;;;;;;;;12.00;12.00;;;;;17.70;100.00;99829.03;2103223;28;46468;-56
2023/10/24 02:08:24;;;;;;;;;12.25;12.25;;;;;17.70;100.00;99828.16;2104388;28;46650;-56
2023/10/24 02:09:24;;;;;;;;;13.00;13.00;;;;;17.68;100.00;99822.88;2090210;28;46026;-57
2023/10/24 02:10:24;;;;;;;;;12.50;11.75;;;;;17.70;100.00;99831.72;2058816;28;46381;-57
2023/10/24 02:11:25;;;;;;;;;13.33;12.33;;;;;17.71;100.00;99820.00;2086296;28;46262;-56
2023/10/24 02:12:25;;;;;;;;;12.67;12.67;;;;;17.72;100.00;99821.72;2081771;28;46322;-57
2023/10/24 02:13:25;;;;;;;;;9.33;9.33;;;;;17.73;100.00;99815.41;2095987;28;46350;-56
2023/10/24 02:14:29;;;;;;;;;12.50;12.50;;;;;17.74;100.00;99817.13;2100823;28;46403;-58
2023/10/24 02:15:30;;;;;;;;;11.20;11.20;;;;;17.73;100.00;99819.91;2104652;28;46444;-59
2023/10/24 02:16:30;;;;;;;;;12.25;12.00;;;;;17.71;100.00;99811.97;2100349;28;46397;-60
2023/10/24 02:17:31;;;;;;;;;11.00;11.00;;;;;17.73;100.00;99819.91;2100798;28;46346;-56
2023/10/24 02:18:31;;;;;;;;;12.00;12.00;;;;;17.74;100.00;99814.44;2104637;28;47058;-57
2023/10/24 02:19:32;;;;;;;;;13.25;13.00;;;;;17.74;100.00;99811.75;2077860;28;46324;-58
2023/10/24 02:20:32;;;;;;;;;10.67;10.67;;;;;17.72;100.00;99813.69;2069906;28;46488;-58
2023/10/24 02:21:49;;;;;;;;;12.00;12.00;;;;;17.73;100.00;99817.22;2095495;28;45270;-56
2023/10/24 02:22:49;;;;;;;;;14.25;14.25;;;;;17.73;100.00;99814.53;2089671;28;46287;-56
2023/10/24 02:23:51;;;;;;;;;10.67;10.67;;;;;17.73;100.00;99819.91;2087332;28;46403;-57
2023/10/24 02:24:52;;;;;;;;;10.50;9.75;;;;;17.75;100.00;99817.97;2087847;28;45139;-56
2023/10/24 02:25:52;;;;;;;;;12.75;11.75;;;;;17.74;100.00;99819.81;2087265;28;46424;-57
2023/10/24 02:26:52;;;;;;;;;14.00;12.67;;;;;17.75;100.00;99823.34;2087235;28;47085;-57
2023/10/24 02:27:53;;;;;;;;;11.67;11.67;;;;;17.76;100.00;99825.94;2081605;28;46805;-56
2023/10/24 02:28:53;;;;;;;;;10.50;9.00;;;;;17.76;100.00;99825.06;2084877;28;46884;-57
2023/10/24 02:29:53;;;;;;;;;15.00;13.00;;;;;17.76;100.00;99833.13;2078268;28;46440;-57
2023/10/24 02:30:54;;;;;;;;;10.33;10.33;;;;;17.75;100.00;99826.88;2079407;28;46500;-59
2023/10/24 02:31:54;;;;;;;;;13.25;9.25;;;;;17.74;100.00;99818.94;2078933;28;46284;-58
2023/10/24 02:33:00;;;;;;;;;11.67;11.67;;;;;17.75;100.00;99823.34;2087995;28;46608;-59
2023/10/24 02:34:00;;;;;;;;;11.00;11.00;;;;;17.75;100.00;99832.25;2083681;28;46689;-56
2023/10/24 02:35:00;;;;;;;;;12.00;10.50;;;;;17.75;100.00;99826.88;2087703;28;46885;-58
2023/10/24 02:36:07;;;;;;;;;9.75;9.75;;;;;17.78;100.00;99820.47;2089075;28;46676;-57
2023/10/24 02:37:08;;;;;;;;;10.00;10.00;;;;;17.76;100.00;99822.38;2090753;28;46323;-58
2023/10/24 02:38:08;;;;;;;;;12.75;11.75;;;;;17.76;100.00;99825.94;2087806;28;46204;-58
2023/10/24 02:39:09;;;;;;;;;8.75;8.75;;;;;17.76;100.00;99823.25;2087242;28;46997;-58
2023/10/24 02:40:10;;;;;;;;;10.40;10.40;;;;;17.75;100.00;99824.22;2090417;28;46592;-55
2023/10/24 02:41:10;;;;;;;;;9.00;8.25;;;;;17.74;100.00;99817.13;2088308;28;46595;-57
2023/10/24 02:42:11;;;;;;;;;11.75;11.75;;;;;17.76;100.00;99825.94;2087890;28;45020;-57
2023/10/24 02:43:11;;;;;;;;;13.67;13.00;;;;;17.76;100.00;99820.56;2088729;28;46167;-58
2023/10/24 02:44:11;;;;;;;;;13.00;11.67;;;;;17.77;100.00;99830.34;2086065;28;46947;-56
2023/10/24 02:45:12;;;;;;;;;10.00;10.00;;;;;17.77;100.00;99822.28;2086967;28;46457;-57
2023/10/24 02:46:13;;;;;;;;;11.25;11.25;;;;;17.76;100.00;99820.56;2087346;28;46339;-54
2023/10/24 02:47:13;;;;;;;;;14.00;12.50;;;;;17.75;100.00;99818.84;2086460;28;46805;-58
2023/10/24 02:48:13;;;;;;;;;11.50;11.50;;;;;17.76;100.00;99817.88;2090415;28;46297;-59
2023/10/24 02:49:14;;;;;;;;;12.00;12.00;;;;;17.74;100.00;99816.25;2087780;28;46811;-57
2023/10/24 02:50:15;;;;;;;;;11.00;11.00;;;;;17.64;100.00;99821.31;2087598;28;46333;-57
2023/10/24 02:51:15;;;;;;;;;10.25;9.00;;;;;17.56;100.00;99813.78;2088490;28;46561;-57
2023/10/24 02:52:16;;;;;;;;;11.75;10.50;;;;;17.54;100.00;99817.53;2089642;28;46706;-59
2023/10/24 02:53:16;;;;;;;;;5.50;4.25;;;;;17.54;100.00;99813.03;2086633;28;46279;-57
2023/10/24 02:54:17;;;;;;;;;12.00;12.00;;;;;17.67;100.00;99817.63;2087968;28;45869;-57
2023/10/24 02:55:17;;;;;;;;;10.33;10.33;;;;;17.68;100.00;99813.97;2090113;28;46404;-57
2023/10/24 02:56:17;;;;;;;;;12.67;10.33;;;;;17.68;100.00;99809.47;2090245;28;46298;-58
2023/10/24 02:57:19;;;;;;;;;14.25;12.25;;;;;17.68;100.00;99817.50;2087937;28;46557;-58
2023/10/24 02:58:19;;;;;;;;;11.50;10.50;;;;;17.68;100.00;99809.47;2079089;28;46605;-56
2023/10/24 02:59:20;;;;;;;;;12.25;11.75;;;;;17.72;100.00;99813.69;2071347;28;46939;-58
2023/10/24 03:00:20;;;;;;;;;11.00;11.00;;;;;17.72;100.00;99808.31;2096370;28;46357;-58
2023/10/24 03:01:20;;;;;;;;;11.00;11.00;;;;;17.73;100.00;99815.41;2074990;28;46600;-56
2023/10/24 03:02:21;;;;;;;;;12.25;12.25;;;;;17.70;100.00;99807.56;2072459;28;46141;-58
2023/10/24 03:03:21;;;;;;;;;13.00;11.25;;;;;17.71;100.00;99803.06;2088711;28;46631;-57
2023/10/24 03:04:21;;;;;;;;;10.00;9.00;;;;;17.70;100.00;99809.38;2082271;28;46677;-55
2023/10/24 03:05:22;;;;;;;;;13.25;13.25;;;;;17.68;100.00;99809.47;2095281;28;46732;-57
2023/10/24 03:06:22;;;;;;;;;9.33;8.67;;;;;17.70;100.00;99804.88;2081619;28;47371;-57
2023/10/24 03:07:24;;;;;;;;;12.33;11.67;;;;;17.73;100.00;99812.72;2091735;28;46289;-57
2023/10/24 03:08:25;;;;;;;;;12.20;11.40;;;;;17.72;100.00;99807.47;2096828;28;47039;-58
2023/10/24 03:09:25;;;;;;;;;10.25;10.25;;;;;17.72;100.00;99804.78;2076292;28;46419;-58
2023/10/24 03:10:26;;;;;;;;;15.00;11.67;;;;;17.71;100.00;99805.75;2062643;28;46886;-57
2023/10/24 03:11:26;;;;;;;;;10.67;9.67;;;;;17.72;100.00;99800.28;2084532;28;46359;-58
2023/10/24 03:12:26;;;;;;;;;11.00;11.00;;;;;17.70;100.00;99799.50;2084261;28;46610;-56
2023/10/24 03:13:27;;;;;;;;;10.67;10.67;;;;;17.69;100.00;99803.16;2101546;28;46735;-58
2023/10/24 03:14:27;;;;;;;;;10.33;10.33;;;;;17.69;100.00;99800.47;2081207;28;46376;-58
2023/10/24 03:15:28;;;;;;;;;13.33;11.67;;;;;17.68;100.00;99798.72;2092025;28;46514;-58
2023/10/24 03:16:28;;;;;;;;;8.67;8.67;;;;;17.70;100.00;99793.28;2094744;28;46540;-58
2023/10/24 03:17:28;;;;;;;;;12.00;10.00;;;;;17.64;100.00;99802.53;2081943;28;46135;-57
2023/10/24 03:18:30;;;;;;;;;10.00;9.00;;;;;17.62;100.00;99802.66;2067367;28;46123;-58
2023/10/24 03:19:33;;;;;;;;;6.75;6.75;;;;;17.63;100.00;99801.69;2088273;28;46861;-57
2023/10/24 03:20:34;;;;;;;;;10.50;9.25;;;;;17.61;100.00;99808.13;2074490;28;46648;-58
2023/10/24 03:21:34;;;;;;;;;11.33;11.33;;;;;17.64;100.00;99802.53;2103762;27;46286;-58
2023/10/24 03:22:35;;;;;;;;;13.33;11.00;;;;;17.64;100.00;99798.03;2103430;27;46237;-58
2023/10/24 03:23:35;;;;;;;;;12.33;11.33;;;;;17.69;100.00;99813.88;2097984;28;46856;-58
2023/10/24 03:24:35;;;;;;;;;10.00;10.00;;;;;17.70;100.00;99802.19;2095855;28;46687;-58
2023/10/24 03:25:41;;;;;;;;;11.67;10.33;;;;;17.72;100.00;99802.94;2101018;28;46339;-58
2023/10/24 03:26:41;;;;;;;;;9.00;9.00;;;;;17.73;100.00;99809.19;2097054;28;46523;-58
2023/10/24 03:27:41;;;;;;;;;10.67;10.00;;;;;17.73;100.00;99801.97;2097175;28;46634;-57
2023/10/24 03:28:42;;;;;;;;;10.00;10.00;;;;;17.73;100.00;99801.13;2095396;28;46739;-61
2023/10/24 03:29:42;;;;;;;;;10.33;9.67;;;;;17.73;100.00;99795.75;2095544;28;46119;-59
2023/10/24 03:30:43;;;;;;;;;12.00;12.00;;;;;17.71;100.00;99797.69;2101597;28;46599;-58
2023/10/24 03:31:43;;;;;;;;;11.33;10.00;;;;;17.71;100.00;99803.91;2098875;28;46880;-56
2023/10/24 03:32:43;;;;;;;;;10.00;10.00;;;;;17.72;100.00;99808.31;2097589;28;46365;-58
2023/10/24 03:33:44;;;;;;;;;10.50;10.50;;;;;17.72;100.00;99796.72;2097637;28;46171;-56
2023/10/24 03:34:44;;;;;;;;;8.00;7.00;;;;;17.74;100.00;99803.72;2095157;28;46863;-57
2023/10/24 03:35:45;;;;;;;;;12.67;11.00;;;;;17.75;100.00;99802.75;2090654;28;46363;-57
2023/10/24 03:36:45;;;;;;;;;9.33;9.00;;;;;17.75;100.00;99802.75;2091154;28;46433;-54
2023/10/24 03:37:45;;;;;;;;;14.00;12.00;;;;;17.76;100.00;99807.13;2093068;28;46188;-57
2023/10/24 03:38:46;;;;;;;;;10.00;10.00;;;;;17.77;100.00;99808.88;2102390;28;46795;-57
2023/10/24 03:39:46;;;;;;;;;11.67;11.67;;;;;17.77;100.00;99810.69;2100550;28;46155;-57
2023/10/24 03:40:47;;;;;;;;;11.67;10.00;;;;;17.76;100.00;99817.88;2103138;28;46736;-58
2023/10/24 03:41:48;;;;;;;;;6.50;6.50;;;;;17.77;100.00;99803.50;2099360;28;46412;-58
2023/10/24 03:42:48;;;;;;;;;13.00;13.00;;;;;17.77;100.00;99816.91;2096124;28;46458;-58
2023/10/24 03:43:48;;;;;;;;;9.00;9.00;;;;;17.77;100.00;99816.91;2103804;28;46141;-58
2023/10/24 03:44:49;;;;;;;;;7.67;7.67;;;;;17.77;100.00;99814.22;2094827;28;46293;-58
2023/10/24 03:45:49;;;;;;;;;9.33;9.33;;;;;17.78;100.00;99820.47;2089915;28;46201;-56
2023/10/24 03:46:50;;;;;;;;;10.00;10.00;;;;;17.78;100.00;99818.63;2101802;28;46487;-57
2023/10/24 03:47:52;;;;;;;;;10.00;9.00;;;;;17.79;100.00;99814.16;2097666;28;46488;-58
2023/10/24 03:48:52;;;;;;;;;11.25;11.25;;;;;17.78;100.00;99807.91;2100935;28;46371;-59
2023/10/24 03:49:53;;;;;;;;;9.67;9.67;;;;;17.79;100.00;99809.66;2095377;28;46720;-57
2023/10/24 03:50:53;;;;;;;;;8.00;8.00;;;;;17.81;100.00;99814.91;2094169;28;46449;-57
2023/10/24 03:51:53;;;;;;;;;8.00;8.00;;;;;17.80;100.00;99815.88;2094806;28;46808;-56
2023/10/24 03:52:54;;;;;;;;;10.00;10.00;;;;;17.78;100.00;99807.91;2097596;28;46233;-58
2023/10/24 03:53:54;;;;;;;;;11.00;11.00;;;;;17.80;100.00;99813.19;2087161;28;46142;-58
2023/10/24 03:54:54;;;;;;;;;11.33;9.67;;;;;17.80;100.00;99813.19;2091731;28;46507;-53
2023/10/24 03:55:57;;;;;;;;;8.00;8.00;;;;;17.81;100.00;99812.22;2085006;28;46928;-58
2023/10/24 03:56:58;;;;;;;;;11.50;9.75;;;;;17.82;100.00;99804.06;2073693;28;46358;-58
2023/10/24 03:57:59;;;;;;;;;11.00;10.75;;;;;17.81;100.00;99805.03;2084931;28;46689;-58
2023/10/24 03:58:59;;;;;;;;;7.67;7.67;;;;;17.81;100.00;99809.53;2087655;28;46706;-59
2023/10/24 04:00:00;;;;;;;;;10.00;7.33;;;;;17.80;100.00;99803.31;2099721;28;46478;-55
2023/10/24 04:01:06;;;;;;;;;10.67;8.00;;;;;17.80;100.00;99807.81;2103317;28;46373;-57
2023/10/24 04:02:06;;;;;;;;;8.60;8.60;;;;;17.77;100.00;99806.19;2102559;28;46979;-58
2023/10/24 04:03:06;;;;;;;;;8.00;8.00;;;;;17.77;100.00;99808.00;2102719;28;46582;-57
2023/10/24 04:04:07;;;;;;;;;13.67;10.67;;;;;17.78;100.00;99801.66;2099185;28;46436;-57
2023/10/24 04:05:08;;;;;;;;;9.67;9.67;;;;;17.75;100.00;99802.75;2097088;28;46189;-57
2023/10/24 04:06:12;;;;;;;;;8.50;8.50;;;;;17.79;100.00;99803.44;2097565;28;46705;-58
2023/10/24 04:07:12;;;;;;;;;9.25;7.75;;;;;17.79;100.00;99806.97;2095387;28;46718;-59
2023/10/24 04:08:12;;;;;;;;;6.33;6.00;;;;;17.80;100.00;99802.47;2066731;28;46654;-59
2023/10/24 04:09:12;;;;;;;;;9.00;8.33;;;;;17.78;100.00;99805.22;2081805;28;46340;-57
2023/10/24 04:10:13;;;;;;;;;6.33;6.33;;;;;17.80;100.00;99810.50;2083154;28;46349;-57
2023/10/24 04:11:17;;;;;;;;;5.33;5.33;;;;;17.79;100.00;99804.28;2095626;28;46848;-56
2023/10/24 04:12:17;;;;;;;;;9.25;9.25;;;;;17.78;100.00;99802.53;2102576;28;46957;-58
2023/10/24 04:13:18;;;;;;;;;9.33;9.33;;;;;17.76;100.00;99808.97;2093595;27;46681;-59
2023/10/24 04:14:18;;;;;;;;;8.67;8.67;;;;;17.77;100.00;99802.63;2104606;28;46710;-58
2023/10/24 04:15:18;;;;;;;;;7.33;7.33;;;;;17.75;100.00;99808.09;2096105;28;46667;-58
2023/10/24 04:16:18;;;;;;;;;8.00;8.00;;;;;17.74;100.00;99808.22;2094864;28;46552;-56
2023/10/24 04:17:19;;;;;;;;;8.33;8.33;;;;;17.73;100.00;99809.19;2105148;28;46304;-58
2023/10/24 04:18:19;;;;;;;;;9.00;9.00;;;;;17.72;100.00;99805.63;2095875;28;46551;-57
2023/10/24 04:19:19;;;;;;;;;8.00;8.00;;;;;17.73;100.00;99806.50;2099578;28;46810;-58
2023/10/24 04:20:20;;;;;;;;;7.00;7.00;;;;;17.73;100.00;99806.50;2097459;28;46876;-59
2023/10/24 04:21:20;;;;;;;;;9.67;8.67;;;;;17.75;100.00;99805.44;2096121;28;47152;-57
2023/10/24 04:22:21;;;;;;;;;8.00;8.00;;;;;17.72;100.00;99796.72;2093516;28;46152;-58
2023/10/24 04:23:21;;;;;;;;;6.00;6.00;;;;;17.73;100.00;99807.34;2092470;28;46261;-57
2023/10/24 04:24:21;;;;;;;;;7.67;7.00;;;;;17.74;100.00;99803.72;2095912;27;46661;-59
2023/10/24 04:25:21;;;;;;;;;9.00;8.00;;;;;17.74;100.00;99803.72;2062680;28;46373;-56
2023/10/24 04:26:22;;;;;;;;;8.33;7.00;;;;;17.75;100.00;99801.88;2080944;28;46808;-58
2023/10/24 04:27:24;;;;;;;;;6.67;6.67;;;;;17.76;100.00;99803.59;2103194;28;46757;-58
2023/10/24 04:28:24;;;;;;;;;7.75;7.75;;;;;17.76;100.00;99806.28;2065039;28;46435;-59
2023/10/24 04:29:24;;;;;;;;;8.33;7.33;;;;;17.74;100.00;99805.53;2075520;28;46270;-60
2023/10/24 04:30:26;;;;;;;;;10.33;9.00;;;;;17.75;100.00;99815.28;2104496;28;46126;-58
2023/10/24 04:31:26;;;;;;;;;8.75;7.75;;;;;17.75;100.00;99812.63;2087992;28;46438;-58
2023/10/24 04:32:26;;;;;;;;;8.67;7.00;;;;;17.71;100.00;99805.75;2064049;28;46232;-58
2023/10/24 04:33:27;;;;;;;;;7.00;7.00;;;;;17.70;100.00;99807.56;2076594;28;46204;-57
2023/10/24 04:34:27;;;;;;;;;8.67;8.67;;;;;17.72;100.00;99799.41;2067120;28;46636;-56
2023/10/24 04:35:27;;;;;;;;;8.00;8.00;;;;;17.72;100.00;99800.28;2089070;28;46663;-56
2023/10/24 04:36:28;;;;;;;;;8.00;8.00;;;;;17.71;100.00;99800.38;2077463;28;46605;-60
2023/10/24 04:37:28;;;;;;;;;9.00;9.00;;;;;17.70;100.00;99804.88;2093535;28;46720;-58
2023/10/24 04:38:28;;;;;;;;;6.33;6.33;;;;;17.71;100.00;99813.78;2090483;28;46053;-56